Time;durP1;ratioP1;P1;durP2;ratioP2;P2;SDS_P1;SDS_P2;PMS_P1;PMS_P2;Temp;Humidity;BMP_temperature;BMP_pressure;BME280_temperature;BME280_humidity;BME280_pressure;Samples;Min_cycle;Max_cycle;Signal;HPM_P1;HPM_P2
2022/06/08 00:00:49;;;;;;;11.43;7.75;;;11.70;99.90;;;;;;4868130;29;20060;-91
2022/06/08 00:03:17;;;;;;;14.45;7.85;;;10.30;99.90;;;;;;4867670;29;20095;-91
2022/06/08 00:05:43;;;;;;;12.57;8.25;;;10.00;99.90;;;;;;4867545;29;20068;-90
2022/06/08 00:08:09;;;;;;;13.35;8.60;;;10.30;99.90;;;;;;4867375;29;20401;-90
2022/06/08 00:10:35;;;;;;;13.38;8.60;;;10.40;99.90;;;;;;4867630;29;20401;-90
2022/06/08 00:13:03;;;;;;;13.00;8.65;;;10.30;99.90;;;;;;4867146;29;20486;-90
2022/06/08 00:15:29;;;;;;;12.38;9.00;;;10.50;99.90;;;;;;4867223;29;20056;-90
2022/06/08 00:17:56;;;;;;;14.02;8.60;;;10.30;99.90;;;;;;4882583;29;20055;-90
2022/06/08 00:20:22;;;;;;;17.17;8.95;;;10.30;99.90;;;;;;4866817;29;20204;-89
2022/06/08 00:22:47;;;;;;;18.45;9.30;;;10.40;99.90;;;;;;4894337;29;20147;-89
2022/06/08 00:25:13;;;;;;;14.43;9.00;;;10.30;99.90;;;;;;4916393;29;20044;-90
2022/06/08 00:27:41;;;;;;;16.42;9.70;;;10.30;99.90;;;;;;4916857;29;20501;-90
2022/06/08 00:30:08;;;;;;;15.18;9.88;;;10.40;99.90;;;;;;4916648;29;20060;-90
2022/06/08 00:32:36;;;;;;;13.80;8.65;;;10.30;99.90;;;;;;4916305;29;20548;-90
2022/06/08 00:35:03;;;;;;;13.48;9.82;;;10.30;99.90;;;;;;4916288;29;20056;-89
2022/06/08 00:37:28;;;;;;;14.15;9.50;;;10.20;99.90;;;;;;4916088;29;20052;-90
2022/06/08 00:39:54;;;;;;;16.60;11.43;;;10.30;99.90;;;;;;4917030;29;20084;-90
2022/06/08 00:42:20;;;;;;;14.98;9.40;;;10.40;99.90;;;;;;4902238;29;20075;-89
2022/06/08 00:44:51;;;;;;;14.40;9.35;;;10.50;99.90;;;;;;4917190;29;20055;-89
2022/06/08 00:47:19;;;;;;;16.13;9.38;;;10.30;99.90;;;;;;4915456;29;20044;-90
2022/06/08 00:49:51;;;;;;;14.40;9.13;;;10.30;99.90;;;;;;4915695;29;20084;-91
2022/06/08 00:52:17;;;;;;;15.60;9.73;;;10.30;99.90;;;;;;4915709;29;20056;-92
2022/06/08 00:54:46;;;;;;;19.85;9.82;;;8.60;99.90;;;;;;4916079;29;20056;-90
2022/06/08 00:57:16;;;;;;;16.75;10.30;;;12.10;99.90;;;;;;4916058;29;20052;-90
2022/06/08 00:59:47;;;;;;;15.40;9.77;;;10.20;99.90;;;;;;4917287;29;20058;-91
2022/06/08 01:02:15;;;;;;;17.60;10.20;;;10.20;99.90;;;;;;4917457;29;20059;-90
2022/06/08 01:04:40;;;;;;;15.85;9.70;;;10.10;99.90;;;;;;4900325;29;20135;-90
2022/06/08 01:07:06;;;;;;;16.33;9.85;;;10.10;99.90;;;;;;4915973;29;20135;-90
2022/06/08 01:09:37;;;;;;;13.20;8.93;;;10.10;99.90;;;;;;4915408;29;20048;-90
2022/06/08 01:12:10;;;;;;;17.35;10.40;;;10.10;99.90;;;;;;4915630;29;20060;-90
2022/06/08 01:14:36;;;;;;;16.42;9.68;;;10.20;99.90;;;;;;4915639;29;20070;-89
2022/06/08 01:17:16;;;;;;;13.05;9.52;;;10.00;99.90;;;;;;4915432;29;20489;-90
2022/06/08 01:19:44;;;;;;;19.92;9.68;;;11.30;99.90;;;;;;4915421;29;20056;-90
2022/06/08 01:22:12;;;;;;;19.23;9.63;;;10.10;99.90;;;;;;4915681;29;20063;-90
2022/06/08 01:24:38;;;;;;;13.80;10.23;;;10.00;99.90;;;;;;4914899;29;20111;-90
2022/06/08 01:27:09;;;;;;;16.95;9.75;;;10.00;99.90;;;;;;4915479;29;20880;-89
2022/06/08 01:29:58;;;;;;;15.43;9.70;;;9.90;99.90;;;;;;4915097;29;20066;-90
2022/06/08 01:32:37;;;;;;;14.45;10.70;;;9.90;99.90;;;;;;4929981;29;20052;-89
2022/06/08 01:35:15;;;;;;;16.58;10.63;;;9.90;99.90;;;;;;4915189;29;20063;-90
2022/06/08 01:37:40;;;;;;;15.25;9.35;;;9.90;99.90;;;;;;4915084;29;20095;-90
2022/06/08 01:40:24;;;;;;;15.98;10.45;;;9.90;99.90;;;;;;4931167;29;20507;-90
2022/06/08 01:42:56;;;;;;;15.30;10.10;;;9.80;99.90;;;;;;4930915;29;20560;-90
2022/06/08 01:45:42;;;;;;;14.30;8.90;;;10.00;99.90;;;;;;4930494;29;20307;-89
2022/06/08 01:48:26;;;;;;;11.63;9.45;;;9.80;99.90;;;;;;4930988;29;20048;-90
2022/06/08 01:51:03;;;;;;;18.30;11.40;;;8.90;99.90;;;;;;4930924;29;20084;-90
2022/06/08 01:53:48;;;;;;;16.50;11.15;;;9.80;99.90;;;;;;4914594;29;20056;-89
2022/06/08 01:56:34;;;;;;;17.58;10.82;;;9.80;99.90;;;;;;4915157;29;20453;-90
2022/06/08 01:59:37;;;;;;;17.00;10.93;;;9.80;99.90;;;;;;4913838;29;20408;-89
2022/06/08 02:02:14;;;;;;;14.75;11.35;;;9.80;99.90;;;;;;4930793;29;20060;-89
2022/06/08 02:05:05;;;;;;;19.63;12.65;;;9.80;99.90;;;;;;4930364;29;20052;-89
2022/06/08 02:07:35;;;;;;;20.65;13.20;;;10.00;99.90;;;;;;4913025;29;20103;-90
2022/06/08 02:10:18;;;;;;;17.33;11.43;;;9.80;99.90;;;;;;4914821;29;20404;-89
2022/06/08 02:12:48;;;;;;;16.05;12.43;;;9.80;99.90;;;;;;4914354;29;20096;-89
2022/06/08 02:15:21;;;;;;;19.92;12.75;;;9.80;99.90;;;;;;4914197;29;20052;-89
2022/06/08 02:17:57;;;;;;;21.38;13.43;;;9.80;99.90;;;;;;4914024;29;20432;-90
2022/06/08 02:20:30;;;;;;;23.23;13.77;;;9.80;99.90;;;;;;4914509;29;20087;-89
2022/06/08 02:23:11;;;;;;;24.00;14.55;;;9.90;99.90;;;;;;4914393;29;20056;-89
2022/06/08 02:25:48;;;;;;;26.52;14.73;;;9.90;99.90;;;;;;4912295;29;20063;-89
2022/06/08 02:28:19;;;;;;;23.85;15.48;;;9.90;99.90;;;;;;4913928;29;20368;-89
2022/06/08 02:30:55;;;;;;;22.52;14.63;;;9.90;99.90;;;;;;4914132;29;20382;-90
2022/06/08 02:36:13;;;;;;;25.50;15.60;;;8.60;99.90;;;;;;4913719;29;20485;-89
2022/06/08 02:38:42;;;;;;;26.25;16.30;;;9.90;99.90;;;;;;4913902;29;20056;-88
2022/06/08 02:41:09;;;;;;;23.48;15.60;;;9.90;99.90;;;;;;4914121;29;20512;-90
2022/06/08 02:43:46;;;;;;;21.25;14.10;;;10.00;99.90;;;;;;4914098;29;20056;-89
2022/06/08 02:46:22;;;;;;;26.63;17.40;;;10.00;99.90;;;;;;4914016;29;20062;-89
2022/06/08 02:48:51;;;;;;;29.92;17.67;;;10.20;99.90;;;;;;4918225;29;20060;-91
2022/06/08 02:51:16;;;;;;;32.70;19.15;;;10.10;99.90;;;;;;4924377;29;20086;-90
2022/06/08 02:53:55;;;;;;;33.47;18.10;;;11.20;99.90;;;;;;4928610;29;20112;-90
2022/06/08 02:56:26;;;;;;;31.02;17.75;;;10.20;99.90;;;;;;4925316;29;20088;-89
2022/06/08 02:59:05;;;;;;;32.40;19.52;;;10.70;99.90;;;;;;4922383;29;20052;-90
2022/06/08 03:01:35;;;;;;;35.28;20.80;;;10.20;99.90;;;;;;4923240;29;20048;-89
2022/06/08 03:04:10;;;;;;;35.72;20.50;;;10.20;99.90;;;;;;4921083;29;20056;-89
2022/06/08 03:06:58;;;;;;;33.22;20.70;;;10.20;99.90;;;;;;4917146;29;20135;-89
2022/06/08 03:09:24;;;;;;;32.75;20.67;;;10.30;99.90;;;;;;4900541;29;20509;-90
2022/06/08 03:12:00;;;;;;;39.05;22.90;;;10.30;99.90;;;;;;4917598;29;20052;-89
2022/06/08 03:14:26;;;;;;;38.03;22.42;;;10.30;99.90;;;;;;4919087;29;20052;-90
2022/06/08 03:16:56;;;;;;;40.28;24.27;;;10.80;99.90;;;;;;4918091;29;20048;-89
2022/06/08 03:19:25;;;;;;;42.78;25.20;;;10.40;99.90;;;;;;4918910;29;20086;-89
2022/06/08 03:21:58;;;;;;;41.30;23.85;;;10.30;99.90;;;;;;4918273;29;20109;-90
2022/06/08 03:24:25;;;;;;;39.75;24.52;;;10.30;99.90;;;;;;4917731;29;20056;-92
2022/06/08 03:27:00;;;;;;;33.58;22.17;;;10.40;99.90;;;;;;4917857;29;20507;-89
2022/06/08 03:29:31;;;;;;;47.33;25.83;;;10.40;99.90;;;;;;4918276;29;20052;-93
2022/06/08 03:39:28;;;;;;;;;;;;;;;;;;;;;
2022/06/08 03:41:59;;;;;;;36.72;23.80;;;10.60;99.90;;;;;;4901772;29;20064;-95
2022/06/08 03:47:43;;;;;;;;;;;;;;;;;;;;;
2022/06/08 03:50:32;;;;;;;36.33;23.10;;;11.50;99.90;;;;;;4918874;29;20485;-95
2022/06/08 03:53:07;;;;;;;37.40;23.05;;;10.80;99.90;;;;;;4889853;29;20060;-95
2022/06/08 03:55:56;;;;;;;32.50;21.65;;;9.90;99.90;;;;;;4887832;29;20111;-94
2022/06/08 03:58:33;;;;;;;34.20;22.65;;;11.10;99.90;;;;;;4903315;29;20075;-95
2022/06/08 04:01:42;;;;;;;37.42;22.98;;;11.10;99.90;;;;;;4888108;29;20048;-95
2022/06/08 04:04:19;;;;;;;34.08;22.88;;;11.10;99.90;;;;;;4907599;29;20147;-95
2022/06/08 04:07:02;;;;;;;;;;;;;;;;;;;;;
2022/06/08 04:09:36;;;;;;;34.22;23.55;;;10.30;99.90;;;;;;4935736;29;20044;-96
2022/06/08 04:12:13;;;;;;;34.22;22.40;;;11.00;99.90;;;;;;4904067;29;20080;-95
2022/06/08 04:15:16;;;;;;;;;;;;;;;;;;;;;
2022/06/08 04:17:46;;;;;;;34.72;21.30;;;11.10;99.90;;;;;;4904334;29;20044;-95
2022/06/08 04:20:53;;;;;;;34.05;21.95;;;11.20;99.90;;;;;;4904538;29;20135;-96
2022/06/08 04:23:22;;;;;;;35.72;22.60;;;11.50;99.90;;;;;;4889432;29;20091;-93
2022/06/08 04:25:48;;;;;;;35.83;22.13;;;11.80;99.90;;;;;;4886901;29;20127;-93
2022/06/08 04:28:14;;;;;;;35.22;23.20;;;11.80;99.90;;;;;;4902236;29;20143;-93
2022/06/08 04:30:39;;;;;;;36.47;22.23;;;11.80;99.90;;;;;;4886291;29;20078;-94
2022/06/08 04:33:05;;;;;;;31.40;22.10;;;12.30;99.90;;;;;;4901605;29;20063;-92
2022/06/08 04:35:32;;;;;;;31.77;21.67;;;12.40;99.90;;;;;;4900721;29;20060;-91
2022/06/08 04:38:00;;;;;;;26.75;19.05;;;12.80;99.90;;;;;;4916264;29;20143;-92
2022/06/08 04:40:34;;;;;;;28.33;19.48;;;13.10;99.90;;;;;;4885183;29;20083;-93
2022/06/08 04:43:15;;;;;;;;;;;;;;;;;;;;;
2022/06/08 04:45:41;;;;;;;22.27;16.38;;;13.00;99.90;;;;;;4902305;29;20052;-93
2022/06/08 04:48:08;;;;;;;21.05;17.27;;;14.30;99.90;;;;;;4900832;29;20489;-92
2022/06/08 04:50:34;;;;;;;21.20;17.27;;;14.20;99.90;;;;;;4902784;29;20147;-95
2022/06/08 04:53:04;;;;;;;22.40;17.50;;;14.00;99.90;;;;;;4885107;29;20107;-93
2022/06/08 04:55:30;;;;;;;22.20;17.73;;;13.80;99.90;;;;;;4916530;29;20087;-92
2022/06/08 04:58:01;;;;;;;27.42;17.40;;;13.60;99.90;;;;;;4900970;29;20086;-92
2022/06/08 05:00:27;;;;;;;21.35;16.77;;;13.60;99.90;;;;;;4901311;29;20052;-91
2022/06/08 05:02:53;;;;;;;23.52;18.60;;;13.40;99.90;;;;;;4901215;29;20143;-92
2022/06/08 05:05:27;;;;;;;22.83;18.08;;;13.40;99.90;;;;;;4900359;29;20055;-91
2022/06/08 05:07:53;;;;;;;27.25;20.45;;;13.40;99.90;;;;;;4916273;29;20076;-93
2022/06/08 05:10:21;;;;;;;26.08;18.98;;;13.30;99.90;;;;;;4900644;29;20064;-93
2022/06/08 05:12:47;;;;;;;28.35;20.65;;;13.30;99.90;;;;;;4901009;29;20052;-93
2022/06/08 05:15:45;;;;;;;26.08;20.52;;;13.30;99.90;;;;;;4902826;29;20146;-93
2022/06/08 05:18:11;;;;;;;27.30;20.42;;;13.40;99.90;;;;;;4901680;29;20056;-92
2022/06/08 05:20:40;;;;;;;23.95;19.17;;;12.50;99.90;;;;;;4900375;29;20131;-93
2022/06/08 05:23:12;;;;;;;29.10;20.52;;;13.30;99.90;;;;;;4899898;29;20056;-92
2022/06/08 05:25:41;;;;;;;30.98;20.55;;;13.50;99.90;;;;;;4900160;29;20413;-92
2022/06/08 05:28:11;;;;;;;27.00;20.30;;;13.30;99.90;;;;;;4900918;29;20044;-93
2022/06/08 05:30:37;;;;;;;30.77;22.98;;;13.30;99.90;;;;;;4901020;29;20084;-92
2022/06/08 05:33:04;;;;;;;30.42;22.50;;;13.30;99.90;;;;;;4898977;29;20047;-92
2022/06/08 05:35:32;;;;;;;26.13;21.73;;;13.40;99.90;;;;;;4883553;29;20111;-91
2022/06/08 05:37:58;;;;;;;29.10;21.55;;;13.40;99.90;;;;;;4899978;29;20056;-91
2022/06/08 05:40:24;;;;;;;28.45;21.63;;;13.40;99.90;;;;;;4899615;29;20091;-92
2022/06/08 05:42:50;;;;;;;33.10;23.95;;;13.50;99.90;;;;;;4899799;29;20059;-92
2022/06/08 05:45:21;;;;;;;34.97;23.38;;;13.50;99.90;;;;;;4883524;29;20040;-90
2022/06/08 05:47:50;;;;;;;30.58;23.38;;;13.60;99.90;;;;;;4899415;29;20048;-92
2022/06/08 05:50:16;;;;;;;31.88;23.42;;;13.70;99.90;;;;;;4898759;29;20095;-92
2022/06/08 05:52:44;;;;;;;30.60;22.38;;;13.90;99.90;;;;;;4883772;29;20052;-92
2022/06/08 05:55:12;;;;;;;28.80;23.10;;;14.20;99.90;;;;;;4899476;29;20426;-92
2022/06/08 05:57:38;;;;;;;31.70;24.45;;;14.10;99.90;;;;;;4899739;29;20055;-91
2022/06/08 06:00:08;;;;;;;30.90;23.73;;;14.30;99.90;;;;;;4883059;29;20493;-92
2022/06/08 06:02:34;;;;;;;33.47;24.42;;;14.40;99.90;;;;;;4899591;29;20139;-93
2022/06/08 06:04:59;;;;;;;30.05;22.27;;;14.50;99.90;;;;;;4883198;29;20471;-93
2022/06/08 06:07:25;;;;;;;31.63;22.40;;;14.70;99.90;;;;;;4899282;29;20460;-92
2022/06/08 06:09:51;;;;;;;28.20;21.13;;;14.80;99.90;;;;;;4883676;29;20503;-94
2022/06/08 06:12:17;;;;;;;29.42;22.15;;;14.80;99.90;;;;;;4883355;29;20079;-92
2022/06/08 06:14:46;;;;;;;28.52;21.88;;;14.90;99.90;;;;;;4902680;29;20028;-92
2022/06/08 06:17:12;;;;;;;29.83;22.40;;;15.00;99.90;;;;;;4922107;29;20056;-94
2022/06/08 06:19:40;;;;;;;28.00;21.88;;;15.10;99.90;;;;;;4934800;29;20048;-92
2022/06/08 06:22:06;;;;;;;28.20;22.13;;;15.30;99.90;;;;;;4903071;29;20044;-93
2022/06/08 06:24:32;;;;;;;26.20;20.23;;;15.90;99.90;;;;;;4913306;29;20051;-92
2022/06/08 06:27:05;;;;;;;22.38;19.20;;;16.80;99.90;;;;;;4893695;29;20059;-94
2022/06/08 06:29:31;;;;;;;21.65;19.33;;;17.60;99.90;;;;;;4890694;29;20052;-92
2022/06/08 06:32:04;;;;;;;23.33;17.73;;;18.30;99.90;;;;;;4888122;29;20080;-93
2022/06/08 06:34:30;;;;;;;20.95;18.27;;;18.20;99.90;;;;;;4903903;29;20401;-92
2022/06/08 06:36:58;;;;;;;19.52;16.95;;;18.00;99.90;;;;;;4884593;29;20056;-93
2022/06/08 06:39:29;;;;;;;18.50;16.23;;;17.90;99.90;;;;;;4901864;29;20063;-93
2022/06/08 06:41:55;;;;;;;18.92;15.88;;;17.70;99.90;;;;;;4900533;29;20052;-93
2022/06/08 06:44:21;;;;;;;18.38;16.45;;;17.80;99.90;;;;;;4899794;29;20058;-95
2022/06/08 06:46:47;;;;;;;18.60;15.93;;;18.30;99.90;;;;;;4900188;29;20135;-94
2022/06/08 06:49:13;;;;;;;16.33;14.63;;;18.80;99.90;;;;;;4884640;29;20147;-93
2022/06/08 06:51:39;;;;;;;15.65;12.68;;;18.30;99.90;;;;;;4916365;29;20048;-94
2022/06/08 06:54:13;;;;;;;16.95;13.27;;;19.20;99.90;;;;;;4899844;29;20143;-93
2022/06/08 06:56:39;;;;;;;14.65;12.38;;;19.70;99.90;;;;;;4900880;29;20070;-94
2022/06/08 06:59:05;;;;;;;12.25;10.88;;;20.30;99.90;;;;;;4899398;29;20481;-94
2022/06/08 07:01:34;;;;;;;13.32;12.02;;;20.90;99.90;;;;;;4899391;29;20569;-95
2022/06/08 07:04:04;;;;;;;13.65;12.45;;;21.10;99.90;;;;;;4899899;29;20067;-95
2022/06/08 07:06:30;;;;;;;14.95;12.55;;;20.80;99.90;;;;;;4884279;29;20485;-95
2022/06/08 07:08:59;;;;;;;12.55;11.32;;;20.30;99.90;;;;;;4899982;29;20058;-96
2022/06/08 07:11:35;;;;;;;13.25;11.80;;;20.60;99.90;;;;;;4899331;29;20538;-94
2022/06/08 07:14:03;;;;;;;13.73;12.35;;;20.80;99.90;;;;;;4900625;29;20055;-94
2022/06/08 07:16:31;;;;;;;13.82;12.40;;;20.50;99.90;;;;;;4918285;29;20080;-94
2022/06/08 07:18:57;;;;;;;13.35;12.05;;;20.70;99.90;;;;;;4913630;29;20028;-94
2022/06/08 07:21:23;;;;;;;12.95;11.50;;;20.60;99.90;;;;;;4900790;29;20146;-95
2022/06/08 07:23:52;;;;;;;14.65;11.38;;;20.60;99.90;;;;;;4892017;29;20077;-95
2022/06/08 07:26:27;;;;;;;13.13;11.57;;;20.60;99.90;;;;;;4908183;29;20059;-94
2022/06/08 07:28:56;;;;;;;12.05;10.85;;;19.30;99.90;;;;;;4908421;29;20099;-94
2022/06/08 07:31:26;;;;;;;11.45;10.25;;;20.80;99.90;;;;;;4909449;29;20464;-96
2022/06/08 07:33:55;;;;;;;10.15;9.15;;;21.30;99.90;;;;;;4902979;29;20048;-95
2022/06/08 07:36:21;;;;;;;10.02;8.98;;;21.50;99.90;;;;;;4899725;29;20103;-95
2022/06/08 07:38:47;;;;;;;10.90;8.52;;;21.30;99.90;;;;;;4901461;29;20151;-95
2022/06/08 07:41:15;;;;;;;10.00;8.38;;;21.30;99.90;;;;;;4885313;29;20131;-95
2022/06/08 07:43:41;;;;;;;8.77;7.88;;;21.60;99.90;;;;;;4938916;29;20130;-96
2022/06/08 07:46:10;;;;;;;8.43;7.38;;;21.60;99.90;;;;;;4920820;29;20146;-96
2022/06/08 07:51:40;;;;;;;6.88;6.15;;;22.50;99.90;;;;;;4850959;29;20114;-92
2022/06/08 07:54:06;;;;;;;6.70;6.10;;;22.30;99.90;;;;;;4874729;29;20059;-94
2022/06/08 07:56:34;;;;;;;7.68;6.68;;;22.70;99.90;;;;;;4894952;29;20498;-93
2022/06/08 07:59:03;;;;;;;7.00;5.07;;;22.50;99.90;;;;;;4912448;29;20048;-94
2022/06/08 08:01:33;;;;;;;4.10;3.70;;;21.80;99.90;;;;;;4899664;29;20113;-93
2022/06/08 08:04:01;;;;;;;5.32;4.13;;;21.80;99.90;;;;;;4925442;29;20051;-93
2022/06/08 08:06:47;;;;;;;4.43;4.03;;;21.90;99.90;;;;;;4914834;29;20126;-94
2022/06/08 08:09:17;;;;;;;5.72;4.60;;;21.60;99.90;;;;;;4914754;29;20054;-95
2022/06/08 08:11:50;;;;;;;4.57;3.80;;;22.50;99.90;;;;;;4897108;29;20522;-95
2022/06/08 08:14:20;;;;;;;3.95;3.55;;;23.10;99.90;;;;;;4903046;29;20052;-95
2022/06/08 08:16:46;;;;;;;4.07;3.22;;;23.00;99.90;;;;;;4900683;29;20074;-94
2022/06/08 08:19:13;;;;;;;3.85;2.97;;;22.70;99.90;;;;;;4940856;29;20048;-94
2022/06/08 08:21:44;;;;;;;3.55;2.97;;;22.70;99.90;;;;;;4902160;29;20128;-93
2022/06/08 08:24:15;;;;;;;4.13;3.40;;;23.10;99.90;;;;;;4936516;29;20071;-90
2022/06/08 08:26:43;;;;;;;3.00;2.80;;;23.40;99.90;;;;;;4916558;29;20088;-92
2022/06/08 08:29:09;;;;;;;3.60;3.13;;;23.80;99.90;;;;;;4920459;29;20086;-88
2022/06/08 08:31:37;;;;;;;4.15;3.00;;;24.30;99.90;;;;;;4958572;29;20050;-91
2022/06/08 08:34:03;;;;;;;3.40;3.10;;;24.80;99.90;;;;;;4944424;29;20175;-91
2022/06/08 08:36:34;;;;;;;3.40;2.78;;;25.40;99.90;;;;;;4907578;29;20533;-94
2022/06/08 08:39:13;;;;;;;2.60;2.40;;;25.10;99.90;;;;;;4947235;29;20107;-96
2022/06/08 08:44:45;;;;;;;3.97;2.90;;;24.90;99.90;;;;;;4928031;29;20051;-94
2022/06/08 08:47:42;;;;;;;2.92;2.60;;;24.80;99.90;;;;;;4910572;29;20127;-93
2022/06/08 08:51:02;;;;;;;3.00;2.20;;;24.80;99.90;;;;;;4942658;29;20272;-94
2022/06/08 08:54:22;;;;;;;3.20;2.10;;;24.50;99.90;;;;;;4908433;29;20163;-93
2022/06/08 08:57:02;;;;;;;3.08;2.45;;;24.20;99.90;;;;;;4906668;29;20059;-92
2022/06/08 08:59:31;;;;;;;3.38;2.83;;;24.20;99.90;;;;;;4921774;29;20061;-91
2022/06/08 09:02:09;;;;;;;3.90;3.20;;;24.30;99.90;;;;;;4926134;29;20043;-96
2022/06/08 09:05:17;;;;;;;;;;;;;;;;;;;;;
2022/06/08 09:08:02;;;;;;;5.75;3.80;;;23.80;99.90;;;;;;4954416;28;20071;-95
2022/06/08 09:10:39;;;;;;;4.05;3.70;;;23.60;99.90;;;;;;4943650;29;20106;-94
2022/06/08 09:13:43;;;;;;;4.70;3.58;;;24.10;99.90;;;;;;4911224;29;20050;-96
2022/06/08 09:16:35;;;;;;;3.92;3.40;;;23.80;99.90;;;;;;4912259;29;20063;-95
2022/06/08 09:19:43;;;;;;;4.82;3.53;;;24.80;99.90;;;;;;4921250;29;20058;-95
2022/06/08 09:22:18;;;;;;;4.93;3.90;;;23.40;99.90;;;;;;4892068;29;20079;-95
2022/06/08 09:24:57;;;;;;;5.78;3.75;;;24.80;99.90;;;;;;4921067;29;20514;-90
2022/06/08 09:27:36;;;;;;;5.85;4.32;;;24.60;99.90;;;;;;4925766;29;20415;-91
2022/06/08 09:30:10;;;;;;;4.35;3.95;;;24.20;99.90;;;;;;4911888;29;20501;-91
2022/06/08 09:32:49;;;;;;;4.57;4.18;;;24.00;99.90;;;;;;4912882;29;20583;-91
2022/06/08 09:35:20;;;;;;;7.00;4.80;;;23.20;99.90;;;;;;4915468;28;20090;-92
2022/06/08 09:37:47;;;;;;;7.18;4.82;;;23.10;99.90;;;;;;4940224;29;20059;-94
2022/06/08 09:40:36;;;;;;;7.22;4.70;;;24.60;99.90;;;;;;4908973;29;20151;-94
2022/06/08 09:43:14;;;;;;;6.93;4.28;;;23.00;99.90;;;;;;4916120;29;20090;-94
2022/06/08 09:45:47;;;;;;;5.93;4.95;;;22.90;99.90;;;;;;4959683;29;20074;-95
2022/06/08 09:51:26;;;;;;;5.95;4.18;;;23.20;99.90;;;;;;4966302;28;20138;-93
2022/06/08 09:54:31;;;;;;;5.30;4.55;;;23.50;99.90;;;;;;4947815;29;20059;-94
2022/06/08 09:57:29;;;;;;;5.70;4.50;;;23.90;99.90;;;;;;4949352;29;20051;-94
2022/06/08 10:00:04;;;;;;;4.60;4.18;;;23.40;99.90;;;;;;4955620;29;20175;-95
2022/06/08 10:02:57;;;;;;;5.15;4.57;;;22.50;99.90;;;;;;4949129;29;20597;-95
2022/06/08 10:05:53;;;;;;;6.07;5.00;;;22.80;99.90;;;;;;4943130;29;20047;-95
2022/06/08 10:08:22;;;;;;;6.13;5.18;;;23.00;99.90;;;;;;4957745;29;20059;-95
2022/06/08 10:11:42;;;;;;;6.30;4.70;;;22.50;99.90;;;;;;4924468;29;20050;-95
2022/06/08 10:14:35;;;;;;;5.40;4.90;;;23.00;99.90;;;;;;4930972;29;20058;-94
2022/06/08 10:17:38;;;;;;;4.72;4.13;;;23.10;99.90;;;;;;4909774;29;20059;-93
2022/06/08 10:20:13;;;;;;;5.63;4.65;;;22.80;99.90;;;;;;4912042;29;20048;-92
2022/06/08 10:22:49;;;;;;;5.43;4.30;;;23.00;99.90;;;;;;4920282;29;20447;-96
2022/06/08 10:25:19;;;;;;;6.15;3.95;;;23.50;99.90;;;;;;4890022;29;20048;-95
2022/06/08 10:27:59;;;;;;;4.43;3.90;;;24.50;99.90;;;;;;4908985;29;20164;-94
2022/06/08 10:30:54;;;;;;;4.35;3.50;;;24.40;99.90;;;;;;4916727;29;20484;-95
2022/06/08 10:33:34;;;;;;;4.28;3.88;;;25.40;99.90;;;;;;4923356;29;20047;-91
2022/06/08 10:36:00;;;;;;;3.85;3.15;;;25.90;99.90;;;;;;4907066;29;20095;-93
2022/06/08 10:38:31;;;;;;;5.25;3.15;;;25.50;99.90;;;;;;4939477;29;20571;-93
2022/06/08 10:42:39;;;;;;;3.97;3.53;;;24.50;99.90;;;;;;4898855;29;20062;-94
2022/06/08 10:44:03;;;;;;;3.75;3.10;;;24.80;99.90;;;;;;4937710;29;20115;-92
2022/06/08 10:46:40;;;;;;;5.82;2.70;;;24.80;99.90;;;;;;4900903;29;20085;-95
2022/06/08 10:49:32;;;;;;;5.82;3.33;;;24.80;99.90;;;;;;4900310;29;20058;-95
2022/06/08 10:52:19;;;;;;;4.38;3.08;;;25.70;99.90;;;;;;4926070;29;20492;-93
2022/06/08 10:55:19;;;;;;;3.45;2.67;;;24.20;99.90;;;;;;4936939;29;20047;-95
2022/06/08 10:57:53;;;;;;;3.70;2.85;;;24.80;99.90;;;;;;4901736;29;20064;-94
2022/06/08 11:00:22;;;;;;;4.75;2.88;;;25.10;99.90;;;;;;4917697;29;20043;-93
2022/06/08 11:03:01;;;;;;;3.65;2.83;;;24.80;99.90;;;;;;4941624;29;20115;-93
2022/06/08 11:05:38;;;;;;;3.90;3.45;;;24.80;99.90;;;;;;4927710;29;20040;-90
2022/06/08 11:08:24;;;;;;;3.10;2.80;;;24.40;99.90;;;;;;4912618;29;20047;-95
2022/06/08 11:11:03;;;;;;;3.83;3.13;;;24.40;99.90;;;;;;4912205;29;20130;-92
2022/06/08 11:13:30;;;;;;;4.10;2.83;;;24.60;99.90;;;;;;4927798;29;20090;-92
2022/06/08 11:16:06;;;;;;;3.47;2.47;;;24.70;99.90;;;;;;4907144;29;20043;-91
2022/06/08 11:18:51;;;;;;;3.33;3.03;;;24.60;99.90;;;;;;4926687;29;20059;-90
2022/06/08 11:21:49;;;;;;;6.28;3.00;;;24.80;99.90;;;;;;4928727;29;20054;-90
2022/06/08 11:24:35;;;;;;;5.30;3.47;;;24.30;99.90;;;;;;4893975;29;20113;-93
2022/06/08 11:27:30;;;;;;;3.75;2.75;;;24.10;99.90;;;;;;4912278;29;20063;-93
2022/06/08 11:30:26;;;;;;;4.35;2.65;;;24.40;99.90;;;;;;4929734;29;20236;-93
2022/06/08 11:32:57;;;;;;;4.75;2.97;;;23.30;99.90;;;;;;4920529;29;20499;-93
2022/06/08 11:35:46;;;;;;;3.75;2.42;;;24.30;99.90;;;;;;4956382;28;20055;-94
2022/06/08 11:38:27;;;;;;;3.53;2.72;;;24.60;99.90;;;;;;4925013;29;20051;-93
2022/06/08 11:41:17;;;;;;;3.47;2.80;;;24.70;99.90;;;;;;4941650;29;20081;-94
2022/06/08 11:43:47;;;;;;;5.20;3.20;;;24.60;99.90;;;;;;4926096;29;20066;-94
2022/06/08 11:46:28;;;;;;;4.97;2.95;;;24.40;99.90;;;;;;4925358;29;20077;-95
2022/06/08 11:48:56;;;;;;;5.20;2.80;;;25.20;99.90;;;;;;4924774;29;20408;-93
2022/06/08 11:51:50;;;;;;;4.50;3.72;;;25.30;99.90;;;;;;4925147;29;20051;-93
2022/06/08 11:54:18;;;;;;;3.53;3.00;;;24.70;99.90;;;;;;4937338;29;20504;-93
2022/06/08 11:57:09;;;;;;;6.55;3.50;;;24.80;99.90;;;;;;4924141;29;20059;-93
2022/06/08 11:59:37;;;;;;;3.83;3.50;;;23.60;99.90;;;;;;4923242;29;20058;-93
2022/06/08 12:02:18;;;;;;;5.13;3.92;;;25.10;99.90;;;;;;4908364;29;20511;-93
2022/06/08 12:04:49;;;;;;;6.40;3.85;;;23.50;99.90;;;;;;4924296;29;20491;-93
2022/06/08 12:07:33;;;;;;;6.35;3.97;;;23.50;99.90;;;;;;4908326;29;20519;-94
2022/06/08 12:10:01;;;;;;;4.05;3.60;;;23.20;99.90;;;;;;4955624;29;20086;-94
2022/06/08 12:12:28;;;;;;;7.07;3.95;;;22.90;99.90;;;;;;4924196;29;20089;-93
2022/06/08 12:14:56;;;;;;;5.10;3.78;;;23.00;99.90;;;;;;4955849;29;20067;-94
2022/06/08 12:17:44;;;;;;;5.00;3.60;;;22.70;99.90;;;;;;4924829;29;20400;-93
2022/06/08 12:20:39;;;;;;;4.68;3.53;;;22.70;99.90;;;;;;4925408;29;20186;-94
2022/06/08 12:23:10;;;;;;;6.45;3.72;;;22.40;99.90;;;;;;4910701;29;20051;-93
2022/06/08 12:25:36;;;;;;;4.10;1.90;;;21.90;99.90;;;;;;4926763;29;20083;-93
2022/06/08 12:28:11;;;;;;;6.85;1.60;;;21.10;99.90;;;;;;4925803;29;20051;-92
2022/06/08 12:30:47;;;;;;;5.22;1.75;;;20.50;99.90;;;;;;4941203;29;20055;-95
2022/06/08 12:33:19;;;;;;;3.05;1.52;;;20.40;99.90;;;;;;4927159;29;20083;-93
2022/06/08 12:35:57;;;;;;;4.50;1.60;;;20.20;99.90;;;;;;4920135;29;20060;-92
2022/06/08 12:38:29;;;;;;;3.60;1.27;;;19.80;99.90;;;;;;4922234;29;20551;-94
2022/06/08 12:41:37;;;;;;;;;;;;;;;;;;;;;
2022/06/08 12:44:09;;;;;;;3.63;1.42;;;18.80;99.90;;;;;;4924979;29;20040;-93
2022/06/08 12:46:41;;;;;;;5.25;1.58;;;19.70;99.90;;;;;;4908282;29;20359;-93
2022/06/08 12:49:14;;;;;;;5.93;1.67;;;19.00;99.90;;;;;;4923337;29;20056;-94
2022/06/08 12:51:52;;;;;;;8.70;1.83;;;18.70;99.90;;;;;;4933981;29;20055;-94
2022/06/08 12:54:24;;;;;;;3.40;1.67;;;18.60;99.90;;;;;;4921959;29;20051;-94
2022/06/08 12:56:52;;;;;;;5.32;1.83;;;18.40;99.90;;;;;;4923505;29;20024;-93
2022/06/08 12:59:21;;;;;;;3.13;1.80;;;18.30;99.90;;;;;;4920430;29;20134;-93
2022/06/08 13:01:52;;;;;;;6.88;2.00;;;18.30;99.90;;;;;;4937693;29;20059;-93
2022/06/08 13:04:20;;;;;;;7.18;2.30;;;16.60;99.90;;;;;;4921942;29;20142;-94
2022/06/08 13:06:46;;;;;;;6.07;2.03;;;17.30;99.90;;;;;;4921354;29;20216;-94
2022/06/08 13:09:13;;;;;;;6.50;2.33;;;17.80;99.90;;;;;;4917833;29;20143;-95
2022/06/08 13:11:40;;;;;;;6.28;2.20;;;17.90;99.90;;;;;;4905346;29;20075;-94
2022/06/08 13:14:05;;;;;;;7.05;2.13;;;17.90;99.90;;;;;;4921039;29;20050;-93
2022/06/08 13:16:31;;;;;;;6.20;2.25;;;18.00;99.90;;;;;;4922481;29;20051;-94
2022/06/08 13:18:58;;;;;;;5.20;2.40;;;18.00;99.90;;;;;;4938763;29;20091;-94
2022/06/08 13:21:25;;;;;;;5.28;2.10;;;18.20;99.90;;;;;;4924018;29;20054;-93
2022/06/08 13:23:54;;;;;;;6.32;2.95;;;16.70;99.90;;;;;;4920968;29;20111;-93
2022/06/08 13:26:24;;;;;;;8.18;2.40;;;18.00;99.90;;;;;;4913251;29;20040;-94
2022/06/08 13:28:52;;;;;;;7.85;2.83;;;18.10;99.90;;;;;;4921432;29;20467;-93
2022/06/08 13:31:23;;;;;;;5.30;2.72;;;18.00;99.90;;;;;;4936537;29;20102;-95
2022/06/08 13:34:03;;;;;;;6.72;3.42;;;18.20;99.90;;;;;;4941856;29;20087;-93
2022/06/08 13:36:35;;;;;;;7.68;3.58;;;18.10;99.90;;;;;;4922692;29;20470;-95
2022/06/08 13:39:06;;;;;;;7.57;3.53;;;18.10;99.90;;;;;;4931154;29;20114;-93
2022/06/08 13:41:35;;;;;;;6.88;3.65;;;18.30;99.90;;;;;;4927700;29;20387;-95
2022/06/08 13:44:04;;;;;;;7.80;3.88;;;18.20;99.90;;;;;;4909784;29;20548;-95